sensor_id;sensor_type;location;lat;lon;timestamp;temperature;humidity
19586;DHT22;9939;49.246;9.106;2024-02-21T00:00:40;7.40;99.90
19586;DHT22;9939;49.246;9.106;2024-02-21T00:03:08;7.50;99.90
19586;DHT22;9939;49.246;9.106;2024-02-21T00:05:35;7.40;99.90
19586;DHT22;9939;49.246;9.106;2024-02-21T00:08:02;7.50;99.90
19586;DHT22;9939;49.246;9.106;2024-02-21T00:10:32;7.50;99.90
19586;DHT22;9939;49.246;9.106;2024-02-21T00:12:59;7.50;99.90
19586;DHT22;9939;49.246;9.106;2024-02-21T00:15:26;7.50;99.90
19586;DHT22;9939;49.246;9.106;2024-02-21T00:17:53;7.60;99.90
19586;DHT22;9939;49.246;9.106;2024-02-21T00:20:20;7.60;99.90
19586;DHT22;9939;49.246;9.106;2024-02-21T00:22:48;7.50;99.90
19586;DHT22;9939;49.246;9.106;2024-02-21T00:25:15;7.50;99.90
19586;DHT22;9939;49.246;9.106;2024-02-21T00:27:42;7.50;99.90
19586;DHT22;9939;49.246;9.106;2024-02-21T00:30:09;7.40;99.90
19586;DHT22;9939;49.246;9.106;2024-02-21T00:32:36;7.50;99.90
19586;DHT22;9939;49.246;9.106;2024-02-21T00:35:04;7.50;99.90
19586;DHT22;9939;49.246;9.106;2024-02-21T00:37:31;7.60;99.90
19586;DHT22;9939;49.246;9.106;2024-02-21T00:39:58;7.50;99.90
19586;DHT22;9939;49.246;9.106;2024-02-21T00:42:25;7.60;99.90
19586;DHT22;9939;49.246;9.106;2024-02-21T00:44:52;7.50;99.90
19586;DHT22;9939;49.246;9.106;2024-02-21T00:47:19;7.60;99.90
19586;DHT22;9939;49.246;9.106;2024-02-21T00:49:46;7.60;99.90
19586;DHT22;9939;49.246;9.106;2024-02-21T00:52:13;7.50;99.90
19586;DHT22;9939;49.246;9.106;2024-02-21T00:54:40;7.50;99.90
19586;DHT22;9939;49.246;9.106;2024-02-21T00:57:19;7.50;99.90
19586;DHT22;9939;49.246;9.106;2024-02-21T00:59:46;7.50;99.90
19586;DHT22;9939;49.246;9.106;2024-02-21T01:02:13;7.50;99.90
19586;DHT22;9939;49.246;9.106;2024-02-21T01:04:41;7.50;99.90
19586;DHT22;9939;49.246;9.106;2024-02-21T01:07:08;7.50;99.90
19586;DHT22;9939;49.246;9.106;2024-02-21T01:09:35;7.50;99.90
19586;DHT22;9939;49.246;9.106;2024-02-21T01:12:02;7.50;99.90
19586;DHT22;9939;49.246;9.106;2024-02-21T01:14:29;7.50;99.90
19586;DHT22;9939;49.246;9.106;2024-02-21T01:16:57;7.40;99.90
19586;DHT22;9939;49.246;9.106;2024-02-21T01:19:24;7.40;99.90
19586;DHT22;9939;49.246;9.106;2024-02-21T01:21:51;7.30;99.90
19586;DHT22;9939;49.246;9.106;2024-02-21T01:24:18;7.40;99.90
19586;DHT22;9939;49.246;9.106;2024-02-21T01:26:45;7.40;99.90
19586;DHT22;9939;49.246;9.106;2024-02-21T01:29:13;7.40;99.90
19586;DHT22;9939;49.246;9.106;2024-02-21T01:31:40;7.50;99.90
19586;DHT22;9939;49.246;9.106;2024-02-21T01:34:07;7.50;99.90
19586;DHT22;9939;49.246;9.106;2024-02-21T01:36:34;7.60;99.90
19586;DHT22;9939;49.246;9.106;2024-02-21T01:39:01;7.50;99.90
19586;DHT22;9939;49.246;9.106;2024-02-21T01:41:30;7.40;99.90
19586;DHT22;9939;49.246;9.106;2024-02-21T01:43:58;7.40;99.90
19586;DHT22;9939;49.246;9.106;2024-02-21T01:46:25;7.40;99.90
19586;DHT22;9939;49.246;9.106;2024-02-21T01:48:56;7.40;99.90
19586;DHT22;9939;49.246;9.106;2024-02-21T01:51:24;7.40;99.90
19586;DHT22;9939;49.246;9.106;2024-02-21T01:53:52;7.40;99.90
19586;DHT22;9939;49.246;9.106;2024-02-21T01:56:20;7.30;99.90
19586;DHT22;9939;49.246;9.106;2024-02-21T01:58:48;7.30;99.90
19586;DHT22;9939;49.246;9.106;2024-02-21T02:01:16;7.20;99.90
19586;DHT22;9939;49.246;9.106;2024-02-21T02:03:48;7.10;99.90
19586;DHT22;9939;49.246;9.106;2024-02-21T02:06:16;7.20;99.90
19586;DHT22;9939;49.246;9.106;2024-02-21T02:08:43;7.10;99.90
19586;DHT22;9939;49.246;9.106;2024-02-21T02:11:10;7.00;99.90
19586;DHT22;9939;49.246;9.106;2024-02-21T02:13:37;7.00;99.90
19586;DHT22;9939;49.246;9.106;2024-02-21T02:16:05;7.00;99.90
19586;DHT22;9939;49.246;9.106;2024-02-21T02:18:32;6.90;99.90
19586;DHT22;9939;49.246;9.106;2024-02-21T02:20:59;7.00;99.90
19586;DHT22;9939;49.246;9.106;2024-02-21T02:23:30;7.10;99.90
19586;DHT22;9939;49.246;9.106;2024-02-21T02:25:58;7.00;99.90
19586;DHT22;9939;49.246;9.106;2024-02-21T02:28:26;7.00;99.90
19586;DHT22;9939;49.246;9.106;2024-02-21T02:30:53;6.90;99.90
19586;DHT22;9939;49.246;9.106;2024-02-21T02:33:20;6.80;99.90
19586;DHT22;9939;49.246;9.106;2024-02-21T02:35:47;6.90;99.90
19586;DHT22;9939;49.246;9.106;2024-02-21T02:38:14;6.90;99.90
19586;DHT22;9939;49.246;9.106;2024-02-21T02:40:42;6.90;99.90
19586;DHT22;9939;49.246;9.106;2024-02-21T02:43:09;6.90;99.90
19586;DHT22;9939;49.246;9.106;2024-02-21T02:45:36;6.90;99.90
19586;DHT22;9939;49.246;9.106;2024-02-21T02:48:04;6.90;99.90
19586;DHT22;9939;49.246;9.106;2024-02-21T02:50:31;7.00;99.90
19586;DHT22;9939;49.246;9.106;2024-02-21T02:52:59;6.90;99.90
19586;DHT22;9939;49.246;9.106;2024-02-21T02:55:26;7.00;99.90
19586;DHT22;9939;49.246;9.106;2024-02-21T02:57:54;7.00;99.90
19586;DHT22;9939;49.246;9.106;2024-02-21T03:00:21;7.00;99.90
19586;DHT22;9939;49.246;9.106;2024-02-21T03:02:49;7.00;99.90
19586;DHT22;9939;49.246;9.106;2024-02-21T03:05:18;6.90;99.90
19586;DHT22;9939;49.246;9.106;2024-02-21T03:07:47;6.90;99.90
19586;DHT22;9939;49.246;9.106;2024-02-21T03:10:15;6.90;99.90
19586;DHT22;9939;49.246;9.106;2024-02-21T03:12:45;6.80;99.90
19586;DHT22;9939;49.246;9.106;2024-02-21T03:15:13;6.80;99.90
19586;DHT22;9939;49.246;9.106;2024-02-21T03:17:41;6.90;99.90
19586;DHT22;9939;49.246;9.106;2024-02-21T03:20:10;6.90;99.90
19586;DHT22;9939;49.246;9.106;2024-02-21T03:22:40;6.90;99.90
19586;DHT22;9939;49.246;9.106;2024-02-21T03:25:08;6.90;99.90
19586;DHT22;9939;49.246;9.106;2024-02-21T03:27:38;6.90;99.90
19586;DHT22;9939;49.246;9.106;2024-02-21T03:30:05;6.90;99.90
19586;DHT22;9939;49.246;9.106;2024-02-21T03:32:32;7.00;99.90
19586;DHT22;9939;49.246;9.106;2024-02-21T03:34:59;6.90;99.90
19586;DHT22;9939;49.246;9.106;2024-02-21T03:37:26;6.90;99.90
19586;DHT22;9939;49.246;9.106;2024-02-21T03:39:53;6.90;99.90
19586;DHT22;9939;49.246;9.106;2024-02-21T03:42:20;6.90;99.90
19586;DHT22;9939;49.246;9.106;2024-02-21T03:44:47;6.80;99.90
19586;DHT22;9939;49.246;9.106;2024-02-21T03:47:15;6.70;99.90
19586;DHT22;9939;49.246;9.106;2024-02-21T03:49:42;6.70;99.90
19586;DHT22;9939;49.246;9.106;2024-02-21T03:52:09;6.90;99.90
19586;DHT22;9939;49.246;9.106;2024-02-21T03:54:37;6.60;99.90
19586;DHT22;9939;49.246;9.106;2024-02-21T03:57:05;6.50;99.90
19586;DHT22;9939;49.246;9.106;2024-02-21T03:59:32;6.30;99.90
19586;DHT22;9939;49.246;9.106;2024-02-21T04:01:59;6.50;99.90
19586;DHT22;9939;49.246;9.106;2024-02-21T04:04:27;6.40;99.90
19586;DHT22;9939;49.246;9.106;2024-02-21T04:06:54;6.30;99.90
19586;DHT22;9939;49.246;9.106;2024-02-21T04:09:21;6.20;99.90
19586;DHT22;9939;49.246;9.106;2024-02-21T04:11:48;6.10;99.90
19586;DHT22;9939;49.246;9.106;2024-02-21T04:14:15;6.20;99.90
19586;DHT22;9939;49.246;9.106;2024-02-21T04:16:42;6.10;99.90
19586;DHT22;9939;49.246;9.106;2024-02-21T04:19:09;6.10;99.90
19586;DHT22;9939;49.246;9.106;2024-02-21T04:21:36;6.00;99.90
19586;DHT22;9939;49.246;9.106;2024-02-21T04:24:03;6.10;99.90
19586;DHT22;9939;49.246;9.106;2024-02-21T04:26:33;6.20;99.90
19586;DHT22;9939;49.246;9.106;2024-02-21T04:29:01;6.10;99.90
19586;DHT22;9939;49.246;9.106;2024-02-21T04:31:28;6.00;99.90
19586;DHT22;9939;49.246;9.106;2024-02-21T04:33:56;6.20;99.90
19586;DHT22;9939;49.246;9.106;2024-02-21T04:36:23;6.10;99.90
19586;DHT22;9939;49.246;9.106;2024-02-21T04:38:50;6.20;99.90
19586;DHT22;9939;49.246;9.106;2024-02-21T04:41:17;6.30;99.90
19586;DHT22;9939;49.246;9.106;2024-02-21T04:43:46;6.30;99.90
19586;DHT22;9939;49.246;9.106;2024-02-21T04:46:15;6.30;99.90
19586;DHT22;9939;49.246;9.106;2024-02-21T04:48:42;6.30;99.90
19586;DHT22;9939;49.246;9.106;2024-02-21T04:51:11;6.30;99.90
19586;DHT22;9939;49.246;9.106;2024-02-21T04:53:38;6.30;99.90
19586;DHT22;9939;49.246;9.106;2024-02-21T04:56:06;6.20;99.90
19586;DHT22;9939;49.246;9.106;2024-02-21T04:58:33;6.10;99.90
19586;DHT22;9939;49.246;9.106;2024-02-21T05:01:00;6.00;99.90
19586;DHT22;9939;49.246;9.106;2024-02-21T05:03:27;6.00;99.90
19586;DHT22;9939;49.246;9.106;2024-02-21T05:05:54;5.90;99.90
19586;DHT22;9939;49.246;9.106;2024-02-21T05:08:21;5.90;99.90
19586;DHT22;9939;49.246;9.106;2024-02-21T05:10:48;5.80;99.90
19586;DHT22;9939;49.246;9.106;2024-02-21T05:13:15;5.90;99.90
19586;DHT22;9939;49.246;9.106;2024-02-21T05:15:42;5.90;99.90
19586;DHT22;9939;49.246;9.106;2024-02-21T05:18:09;5.70;99.90
19586;DHT22;9939;49.246;9.106;2024-02-21T05:20:36;5.50;99.90
19586;DHT22;9939;49.246;9.106;2024-02-21T05:23:03;5.40;99.90
19586;DHT22;9939;49.246;9.106;2024-02-21T05:25:30;5.20;99.90
19586;DHT22;9939;49.246;9.106;2024-02-21T05:27:57;5.10;99.90
19586;DHT22;9939;49.246;9.106;2024-02-21T05:30:29;5.00;99.90
19586;DHT22;9939;49.246;9.106;2024-02-21T05:32:56;4.90;99.90
19586;DHT22;9939;49.246;9.106;2024-02-21T05:35:28;4.80;99.90
19586;DHT22;9939;49.246;9.106;2024-02-21T05:37:56;4.90;99.90
19586;DHT22;9939;49.246;9.106;2024-02-21T05:40:23;4.90;99.90
19586;DHT22;9939;49.246;9.106;2024-02-21T05:42:50;4.90;99.90
19586;DHT22;9939;49.246;9.106;2024-02-21T05:45:18;4.90;99.90
19586;DHT22;9939;49.246;9.106;2024-02-21T05:47:45;4.80;99.90
19586;DHT22;9939;49.246;9.106;2024-02-21T05:50:12;4.70;99.90
19586;DHT22;9939;49.246;9.106;2024-02-21T05:52:39;4.90;99.90
19586;DHT22;9939;49.246;9.106;2024-02-21T05:55:07;4.80;99.90
19586;DHT22;9939;49.246;9.106;2024-02-21T05:57:35;4.70;99.90
19586;DHT22;9939;49.246;9.106;2024-02-21T06:00:06;4.70;99.90
19586;DHT22;9939;49.246;9.106;2024-02-21T06:02:42;4.60;99.90
19586;DHT22;9939;49.246;9.106;2024-02-21T06:05:09;4.60;99.90
19586;DHT22;9939;49.246;9.106;2024-02-21T06:07:36;4.50;99.90
19586;DHT22;9939;49.246;9.106;2024-02-21T06:10:04;4.40;99.90
19586;DHT22;9939;49.246;9.106;2024-02-21T06:12:31;4.40;99.90
19586;DHT22;9939;49.246;9.106;2024-02-21T06:14:58;4.40;99.90
19586;DHT22;9939;49.246;9.106;2024-02-21T06:17:25;4.30;99.90
19586;DHT22;9939;49.246;9.106;2024-02-21T06:19:52;4.50;99.90
19586;DHT22;9939;49.246;9.106;2024-02-21T06:22:19;4.40;99.90
19586;DHT22;9939;49.246;9.106;2024-02-21T06:24:46;4.40;99.90
19586;DHT22;9939;49.246;9.106;2024-02-21T06:27:13;4.40;99.90
19586;DHT22;9939;49.246;9.106;2024-02-21T06:29:42;4.40;99.90
19586;DHT22;9939;49.246;9.106;2024-02-21T06:32:09;4.40;99.90
19586;DHT22;9939;49.246;9.106;2024-02-21T06:34:37;4.40;99.90
19586;DHT22;9939;49.246;9.106;2024-02-21T06:37:04;4.40;99.90
19586;DHT22;9939;49.246;9.106;2024-02-21T06:39:31;4.50;99.90
19586;DHT22;9939;49.246;9.106;2024-02-21T06:41:58;4.50;99.90
19586;DHT22;9939;49.246;9.106;2024-02-21T06:44:29;4.50;99.90
19586;DHT22;9939;49.246;9.106;2024-02-21T06:46:56;4.70;99.90
19586;DHT22;9939;49.246;9.106;2024-02-21T06:49:25;4.70;99.90
19586;DHT22;9939;49.246;9.106;2024-02-21T06:51:52;4.90;99.90
19586;DHT22;9939;49.246;9.106;2024-02-21T06:54:19;5.00;99.90
19586;DHT22;9939;49.246;9.106;2024-02-21T06:56:46;5.10;99.90
19586;DHT22;9939;49.246;9.106;2024-02-21T06:59:13;5.20;99.90
19586;DHT22;9939;49.246;9.106;2024-02-21T07:01:47;5.10;99.90
19586;DHT22;9939;49.246;9.106;2024-02-21T07:04:15;5.10;99.90
19586;DHT22;9939;49.246;9.106;2024-02-21T07:06:42;5.30;99.90
19586;DHT22;9939;49.246;9.106;2024-02-21T07:09:09;5.30;99.90
19586;DHT22;9939;49.246;9.106;2024-02-21T07:11:36;5.40;99.90
19586;DHT22;9939;49.246;9.106;2024-02-21T07:14:03;5.60;99.90
19586;DHT22;9939;49.246;9.106;2024-02-21T07:16:30;5.80;99.90
19586;DHT22;9939;49.246;9.106;2024-02-21T07:18:59;5.80;99.90
19586;DHT22;9939;49.246;9.106;2024-02-21T07:21:26;5.90;99.90
19586;DHT22;9939;49.246;9.106;2024-02-21T07:23:53;6.00;99.90
19586;DHT22;9939;49.246;9.106;2024-02-21T07:26:20;6.30;99.90
19586;DHT22;9939;49.246;9.106;2024-02-21T07:28:48;6.40;99.90
19586;DHT22;9939;49.246;9.106;2024-02-21T07:31:15;6.60;99.90
19586;DHT22;9939;49.246;9.106;2024-02-21T07:33:42;6.60;99.90
19586;DHT22;9939;49.246;9.106;2024-02-21T07:36:11;6.70;99.90
19586;DHT22;9939;49.246;9.106;2024-02-21T07:38:38;6.80;99.90
19586;DHT22;9939;49.246;9.106;2024-02-21T07:41:05;6.90;99.90
19586;DHT22;9939;49.246;9.106;2024-02-21T07:43:32;7.10;99.90
19586;DHT22;9939;49.246;9.106;2024-02-21T07:45:59;7.10;99.90
19586;DHT22;9939;49.246;9.106;2024-02-21T07:48:26;7.30;99.90
19586;DHT22;9939;49.246;9.106;2024-02-21T07:50:54;7.50;99.90
19586;DHT22;9939;49.246;9.106;2024-02-21T07:53:21;7.60;99.90
19586;DHT22;9939;49.246;9.106;2024-02-21T07:55:48;7.80;99.90
19586;DHT22;9939;49.246;9.106;2024-02-21T07:58:15;8.00;99.90
19586;DHT22;9939;49.246;9.106;2024-02-21T08:00:42;8.10;99.90
19586;DHT22;9939;49.246;9.106;2024-02-21T08:03:09;8.30;99.90
19586;DHT22;9939;49.246;9.106;2024-02-21T08:05:36;8.50;99.90
19586;DHT22;9939;49.246;9.106;2024-02-21T08:08:04;8.80;99.90
19586;DHT22;9939;49.246;9.106;2024-02-21T08:10:31;8.90;99.90
19586;DHT22;9939;49.246;9.106;2024-02-21T08:12:58;9.60;99.90
19586;DHT22;9939;49.246;9.106;2024-02-21T08:15:25;10.40;99.90
19586;DHT22;9939;49.246;9.106;2024-02-21T08:17:56;10.80;99.90
19586;DHT22;9939;49.246;9.106;2024-02-21T08:20:26;11.20;99.90
19586;DHT22;9939;49.246;9.106;2024-02-21T08:22:53;10.50;99.90
19586;DHT22;9939;49.246;9.106;2024-02-21T08:25:20;10.60;99.90
19586;DHT22;9939;49.246;9.106;2024-02-21T08:27:47;11.00;99.90
19586;DHT22;9939;49.246;9.106;2024-02-21T08:30:14;11.00;99.90
19586;DHT22;9939;49.246;9.106;2024-02-21T08:32:41;11.10;99.90
19586;DHT22;9939;49.246;9.106;2024-02-21T08:35:08;11.10;99.90
19586;DHT22;9939;49.246;9.106;2024-02-21T08:37:35;11.10;99.90
19586;DHT22;9939;49.246;9.106;2024-02-21T08:40:02;10.90;99.90
19586;DHT22;9939;49.246;9.106;2024-02-21T08:42:35;10.90;99.90
19586;DHT22;9939;49.246;9.106;2024-02-21T08:45:02;10.70;99.90
19586;DHT22;9939;49.246;9.106;2024-02-21T08:47:29;10.50;99.90
19586;DHT22;9939;49.246;9.106;2024-02-21T08:49:56;10.40;99.90
19586;DHT22;9939;49.246;9.106;2024-02-21T08:52:24;10.30;99.90
19586;DHT22;9939;49.246;9.106;2024-02-21T08:54:50;10.40;99.90
19586;DHT22;9939;49.246;9.106;2024-02-21T08:57:20;10.40;99.90
19586;DHT22;9939;49.246;9.106;2024-02-21T08:59:47;10.60;99.90
19586;DHT22;9939;49.246;9.106;2024-02-21T09:02:14;10.50;99.90
19586;DHT22;9939;49.246;9.106;2024-02-21T09:04:43;10.30;99.90
19586;DHT22;9939;49.246;9.106;2024-02-21T09:07:13;10.10;99.90
19586;DHT22;9939;49.246;9.106;2024-02-21T09:09:40;10.20;99.90
19586;DHT22;9939;49.246;9.106;2024-02-21T09:12:07;10.30;99.90
19586;DHT22;9939;49.246;9.106;2024-02-21T09:14:34;10.40;99.90
19586;DHT22;9939;49.246;9.106;2024-02-21T09:17:01;10.70;99.90
19586;DHT22;9939;49.246;9.106;2024-02-21T09:19:28;10.80;99.90
19586;DHT22;9939;49.246;9.106;2024-02-21T09:21:55;10.90;99.90
19586;DHT22;9939;49.246;9.106;2024-02-21T09:24:22;11.00;99.90
19586;DHT22;9939;49.246;9.106;2024-02-21T09:26:49;11.20;99.90
19586;DHT22;9939;49.246;9.106;2024-02-21T09:29:16;11.40;99.90
19586;DHT22;9939;49.246;9.106;2024-02-21T09:31:43;11.30;99.90
19586;DHT22;9939;49.246;9.106;2024-02-21T09:34:10;11.30;99.90
19586;DHT22;9939;49.246;9.106;2024-02-21T09:36:38;11.30;99.90
19586;DHT22;9939;49.246;9.106;2024-02-21T09:39:07;11.60;99.90
19586;DHT22;9939;49.246;9.106;2024-02-21T09:41:34;12.10;99.90
19586;DHT22;9939;49.246;9.106;2024-02-21T09:44:03;12.20;99.90
19586;DHT22;9939;49.246;9.106;2024-02-21T09:51:43;14.20;99.90
19586;DHT22;9939;49.246;9.106;2024-02-21T09:54:10;14.40;99.90
19586;DHT22;9939;49.246;9.106;2024-02-21T09:56:45;14.20;99.90
19586;DHT22;9939;49.246;9.106;2024-02-21T09:59:11;14.00;99.90
19586;DHT22;9939;49.246;9.106;2024-02-21T10:01:39;14.10;99.90
19586;DHT22;9939;49.246;9.106;2024-02-21T10:04:06;14.00;99.90
19586;DHT22;9939;49.246;9.106;2024-02-21T10:06:33;14.10;99.90
19586;DHT22;9939;49.246;9.106;2024-02-21T10:09:00;13.80;99.90
19586;DHT22;9939;49.246;9.106;2024-02-21T10:11:27;13.50;99.90
19586;DHT22;9939;49.246;9.106;2024-02-21T10:14:04;13.20;99.90
19586;DHT22;9939;49.246;9.106;2024-02-21T10:16:34;12.90;99.90
19586;DHT22;9939;49.246;9.106;2024-02-21T10:19:02;12.90;99.90
19586;DHT22;9939;49.246;9.106;2024-02-21T10:21:30;13.10;99.90
19586;DHT22;9939;49.246;9.106;2024-02-21T10:23:57;13.50;99.90
19586;DHT22;9939;49.246;9.106;2024-02-21T10:26:24;13.70;99.90
19586;DHT22;9939;49.246;9.106;2024-02-21T10:28:51;13.70;99.90
19586;DHT22;9939;49.246;9.106;2024-02-21T10:31:23;13.40;99.90
19586;DHT22;9939;49.246;9.106;2024-02-21T10:33:54;13.30;99.90
19586;DHT22;9939;49.246;9.106;2024-02-21T10:36:21;13.20;99.90
19586;DHT22;9939;49.246;9.106;2024-02-21T10:38:48;12.90;99.90
19586;DHT22;9939;49.246;9.106;2024-02-21T10:41:15;12.70;99.90
19586;DHT22;9939;49.246;9.106;2024-02-21T10:43:43;13.00;99.90
19586;DHT22;9939;49.246;9.106;2024-02-21T10:46:13;13.80;99.90
19586;DHT22;9939;49.246;9.106;2024-02-21T10:48:41;14.10;99.90
19586;DHT22;9939;49.246;9.106;2024-02-21T10:58:55;14.30;99.90
19586;DHT22;9939;49.246;9.106;2024-02-21T11:01:23;14.30;99.90
19586;DHT22;9939;49.246;9.106;2024-02-21T11:03:53;14.70;99.90
19586;DHT22;9939;49.246;9.106;2024-02-21T11:06:21;14.40;99.90
19586;DHT22;9939;49.246;9.106;2024-02-21T11:09:04;13.90;99.90
19586;DHT22;9939;49.246;9.106;2024-02-21T11:11:33;14.20;99.90
19586;DHT22;9939;49.246;9.106;2024-02-21T11:14:19;14.10;99.90
19586;DHT22;9939;49.246;9.106;2024-02-21T11:16:46;14.50;99.90
19586;DHT22;9939;49.246;9.106;2024-02-21T11:19:19;14.80;99.90
19586;DHT22;9939;49.246;9.106;2024-02-21T11:21:47;15.20;99.90
19586;DHT22;9939;49.246;9.106;2024-02-21T11:24:25;15.10;99.90
19586;DHT22;9939;49.246;9.106;2024-02-21T11:26:52;14.70;99.90
19586;DHT22;9939;49.246;9.106;2024-02-21T11:29:25;14.50;99.90
19586;DHT22;9939;49.246;9.106;2024-02-21T11:31:52;14.30;99.90
19586;DHT22;9939;49.246;9.106;2024-02-21T11:34:19;14.40;99.90
19586;DHT22;9939;49.246;9.106;2024-02-21T11:36:47;14.50;99.90
19586;DHT22;9939;49.246;9.106;2024-02-21T11:39:25;13.90;99.90
19586;DHT22;9939;49.246;9.106;2024-02-21T11:42:05;13.80;99.90
19586;DHT22;9939;49.246;9.106;2024-02-21T11:44:35;13.90;99.90
19586;DHT22;9939;49.246;9.106;2024-02-21T11:47:04;14.50;99.90
19586;DHT22;9939;49.246;9.106;2024-02-21T11:49:35;14.30;99.90
19586;DHT22;9939;49.246;9.106;2024-02-21T11:52:02;13.90;99.90
19586;DHT22;9939;49.246;9.106;2024-02-21T11:54:33;13.90;99.90
19586;DHT22;9939;49.246;9.106;2024-02-21T11:57:00;13.70;99.90
19586;DHT22;9939;49.246;9.106;2024-02-21T11:59:29;13.60;99.90
19586;DHT22;9939;49.246;9.106;2024-02-21T12:01:57;13.40;99.90
19586;DHT22;9939;49.246;9.106;2024-02-21T12:04:24;13.30;99.90
19586;DHT22;9939;49.246;9.106;2024-02-21T12:06:55;13.10;99.90
19586;DHT22;9939;49.246;9.106;2024-02-21T12:09:25;13.10;99.90
19586;DHT22;9939;49.246;9.106;2024-02-21T12:11:58;12.90;99.90
19586;DHT22;9939;49.246;9.106;2024-02-21T12:14:27;12.80;99.90
19586;DHT22;9939;49.246;9.106;2024-02-21T12:16:54;13.10;99.90
19586;DHT22;9939;49.246;9.106;2024-02-21T12:19:21;13.30;99.90
19586;DHT22;9939;49.246;9.106;2024-02-21T12:21:48;13.40;99.90
19586;DHT22;9939;49.246;9.106;2024-02-21T12:24:17;13.40;99.90
19586;DHT22;9939;49.246;9.106;2024-02-21T12:26:44;13.70;99.90
19586;DHT22;9939;49.246;9.106;2024-02-21T12:29:11;13.70;99.90
19586;DHT22;9939;49.246;9.106;2024-02-21T12:31:38;13.40;99.90
19586;DHT22;9939;49.246;9.106;2024-02-21T12:34:05;13.70;99.90
19586;DHT22;9939;49.246;9.106;2024-02-21T12:36:33;13.60;99.90
19586;DHT22;9939;49.246;9.106;2024-02-21T12:39:00;13.80;99.90
19586;DHT22;9939;49.246;9.106;2024-02-21T12:41:29;13.70;99.90
19586;DHT22;9939;49.246;9.106;2024-02-21T12:43:56;13.60;99.90
19586;DHT22;9939;49.246;9.106;2024-02-21T12:46:23;13.30;99.90
19586;DHT22;9939;49.246;9.106;2024-02-21T12:48:50;13.70;99.90
19586;DHT22;9939;49.246;9.106;2024-02-21T12:51:17;13.60;99.90
19586;DHT22;9939;49.246;9.106;2024-02-21T12:53:47;13.80;99.90
19586;DHT22;9939;49.246;9.106;2024-02-21T12:56:16;13.90;99.90
19586;DHT22;9939;49.246;9.106;2024-02-21T12:58:43;14.30;99.90
19586;DHT22;9939;49.246;9.106;2024-02-21T13:01:11;14.60;99.90
19586;DHT22;9939;49.246;9.106;2024-02-21T13:03:38;14.10;99.90
19586;DHT22;9939;49.246;9.106;2024-02-21T13:06:05;14.30;99.90
19586;DHT22;9939;49.246;9.106;2024-02-21T13:08:34;14.20;99.90
19586;DHT22;9939;49.246;9.106;2024-02-21T13:11:02;13.90;99.90
19586;DHT22;9939;49.246;9.106;2024-02-21T13:13:29;14.00;99.90
19586;DHT22;9939;49.246;9.106;2024-02-21T13:15:56;13.70;99.90
19586;DHT22;9939;49.246;9.106;2024-02-21T13:18:23;13.80;99.90
19586;DHT22;9939;49.246;9.106;2024-02-21T13:20:50;13.80;99.90
19586;DHT22;9939;49.246;9.106;2024-02-21T13:23:17;13.60;99.90
19586;DHT22;9939;49.246;9.106;2024-02-21T13:25:44;13.40;99.90
19586;DHT22;9939;49.246;9.106;2024-02-21T13:28:12;13.40;99.90
19586;DHT22;9939;49.246;9.106;2024-02-21T13:30:40;13.20;99.90
19586;DHT22;9939;49.246;9.106;2024-02-21T13:33:07;13.40;99.90
19586;DHT22;9939;49.246;9.106;2024-02-21T13:35:34;13.70;99.90
19586;DHT22;9939;49.246;9.106;2024-02-21T13:38:03;13.50;99.90
19586;DHT22;9939;49.246;9.106;2024-02-21T13:40:30;13.60;99.90
19586;DHT22;9939;49.246;9.106;2024-02-21T13:42:57;13.70;99.90
19586;DHT22;9939;49.246;9.106;2024-02-21T13:45:24;13.70;99.90
19586;DHT22;9939;49.246;9.106;2024-02-21T13:47:51;13.60;99.90
19586;DHT22;9939;49.246;9.106;2024-02-21T13:50:19;13.50;99.90
19586;DHT22;9939;49.246;9.106;2024-02-21T13:52:54;13.50;99.90
19586;DHT22;9939;49.246;9.106;2024-02-21T13:55:21;13.60;99.90
19586;DHT22;9939;49.246;9.106;2024-02-21T13:57:48;13.50;99.90
19586;DHT22;9939;49.246;9.106;2024-02-21T14:00:16;13.50;99.90
19586;DHT22;9939;49.246;9.106;2024-02-21T14:02:44;13.40;99.90
19586;DHT22;9939;49.246;9.106;2024-02-21T14:05:11;13.20;99.90
19586;DHT22;9939;49.246;9.106;2024-02-21T14:07:38;12.90;99.90
19586;DHT22;9939;49.246;9.106;2024-02-21T14:10:06;12.70;99.90
19586;DHT22;9939;49.246;9.106;2024-02-21T14:12:33;12.70;99.90
19586;DHT22;9939;49.246;9.106;2024-02-21T14:14:59;12.70;99.90
19586;DHT22;9939;49.246;9.106;2024-02-21T14:17:26;12.80;99.90
19586;DHT22;9939;49.246;9.106;2024-02-21T14:19:53;13.00;99.90
19586;DHT22;9939;49.246;9.106;2024-02-21T14:22:20;12.80;99.90
19586;DHT22;9939;49.246;9.106;2024-02-21T14:24:47;12.90;99.90
19586;DHT22;9939;49.246;9.106;2024-02-21T14:27:14;12.90;99.90
19586;DHT22;9939;49.246;9.106;2024-02-21T14:29:41;13.00;99.90
19586;DHT22;9939;49.246;9.106;2024-02-21T14:32:08;13.00;99.90
19586;DHT22;9939;49.246;9.106;2024-02-21T14:34:36;13.00;99.90
19586;DHT22;9939;49.246;9.106;2024-02-21T14:37:04;13.00;99.90
19586;DHT22;9939;49.246;9.106;2024-02-21T14:39:30;13.00;99.90
19586;DHT22;9939;49.246;9.106;2024-02-21T14:41:59;13.20;99.90
19586;DHT22;9939;49.246;9.106;2024-02-21T14:44:26;13.10;99.90
19586;DHT22;9939;49.246;9.106;2024-02-21T14:46:54;13.00;99.90
19586;DHT22;9939;49.246;9.106;2024-02-21T14:49:21;13.10;99.90
19586;DHT22;9939;49.246;9.106;2024-02-21T14:51:48;13.10;99.90
19586;DHT22;9939;49.246;9.106;2024-02-21T14:54:15;13.00;99.90
19586;DHT22;9939;49.246;9.106;2024-02-21T14:56:41;13.10;99.90
19586;DHT22;9939;49.246;9.106;2024-02-21T14:59:08;13.00;99.90
19586;DHT22;9939;49.246;9.106;2024-02-21T15:01:47;13.30;99.90
19586;DHT22;9939;49.246;9.106;2024-02-21T15:04:14;13.20;99.90
19586;DHT22;9939;49.246;9.106;2024-02-21T15:06:41;13.40;99.90
19586;DHT22;9939;49.246;9.106;2024-02-21T15:09:08;13.30;99.90
19586;DHT22;9939;49.246;9.106;2024-02-21T15:11:35;13.30;99.90
19586;DHT22;9939;49.246;9.106;2024-02-21T15:14:02;13.30;99.90
19586;DHT22;9939;49.246;9.106;2024-02-21T15:16:29;13.30;99.90
19586;DHT22;9939;49.246;9.106;2024-02-21T15:18:56;12.90;99.90
19586;DHT22;9939;49.246;9.106;2024-02-21T15:21:23;12.90;99.90
19586;DHT22;9939;49.246;9.106;2024-02-21T15:23:50;12.70;99.90
19586;DHT22;9939;49.246;9.106;2024-02-21T15:26:17;12.40;99.90
19586;DHT22;9939;49.246;9.106;2024-02-21T15:28:44;12.40;99.90
19586;DHT22;9939;49.246;9.106;2024-02-21T15:31:19;12.30;99.90
19586;DHT22;9939;49.246;9.106;2024-02-21T15:33:46;12.30;99.90
19586;DHT22;9939;49.246;9.106;2024-02-21T15:36:13;12.10;99.90
19586;DHT22;9939;49.246;9.106;2024-02-21T15:38:40;12.10;99.90
19586;DHT22;9939;49.246;9.106;2024-02-21T15:41:07;12.10;99.90
19586;DHT22;9939;49.246;9.106;2024-02-21T15:43:34;12.00;99.90
19586;DHT22;9939;49.246;9.106;2024-02-21T15:46:01;11.90;99.90
19586;DHT22;9939;49.246;9.106;2024-02-21T15:48:28;11.60;99.90
19586;DHT22;9939;49.246;9.106;2024-02-21T15:50:55;11.60;99.90
19586;DHT22;9939;49.246;9.106;2024-02-21T15:53:22;11.40;99.90
19586;DHT22;9939;49.246;9.106;2024-02-21T15:55:52;11.30;99.90
19586;DHT22;9939;49.246;9.106;2024-02-21T15:58:19;11.20;99.90
19586;DHT22;9939;49.246;9.106;2024-02-21T16:00:49;11.10;99.90
19586;DHT22;9939;49.246;9.106;2024-02-21T16:03:16;11.00;99.90
19586;DHT22;9939;49.246;9.106;2024-02-21T16:05:43;10.90;99.90
19586;DHT22;9939;49.246;9.106;2024-02-21T16:08:10;10.80;99.90
19586;DHT22;9939;49.246;9.106;2024-02-21T16:10:36;10.80;99.90